Time;durP1;ratioP1;P1;durP2;ratioP2;P2;SDS_P1;SDS_P2;PMS_P1;PMS_P2;Temp;Humidity;BMP_temperature;BMP_pressure;BME280_temperature;BME280_humidity;BME280_pressure;Samples;Min_cycle;Max_cycle;Signal;HPM_P1;HPM_P2
2024/01/31 00:01:52;;;;;;;14.10;2.30;;;;;;;;;;5029595;28;20061;-64
2024/01/31 00:04:18;;;;;;;12.33;2.33;;;;;;;;;;5048193;28;20110;-64
2024/01/31 00:06:51;;;;;;;15.03;2.40;;;;;;;;;;5047717;28;20049;-64
2024/01/31 00:09:17;;;;;;;13.43;2.30;;;;;;;;;;5047669;28;20114;-64
2024/01/31 00:11:43;;;;;;;10.87;2.87;;;;;;;;;;5049316;28;20052;-64
2024/01/31 00:14:10;;;;;;;12.33;2.60;;;;;;;;;;5048470;28;20656;-64
2024/01/31 00:16:36;;;;;;;16.13;2.40;;;;;;;;;;5049318;28;20755;-64
2024/01/31 00:19:02;;;;;;;12.73;2.70;;;;;;;;;;5048992;28;20384;-64
2024/01/31 00:21:28;;;;;;;17.10;3.67;;;;;;;;;;5048755;28;20049;-64
2024/01/31 00:23:54;;;;;;;15.83;4.27;;;;;;;;;;5046981;28;20044;-64
2024/01/31 00:26:20;;;;;;;13.13;2.87;;;;;;;;;;5047606;28;20041;-64
2024/01/31 00:28:47;;;;;;;13.77;2.77;;;;;;;;;;5047826;28;20041;-65
2024/01/31 00:31:13;;;;;;;10.97;2.63;;;;;;;;;;5048870;28;20045;-65
2024/01/31 00:33:40;;;;;;;11.37;3.07;;;;;;;;;;5046932;28;20414;-65
2024/01/31 00:36:06;;;;;;;18.33;2.97;;;;;;;;;;5047885;28;20052;-64
2024/01/31 00:38:33;;;;;;;11.53;2.90;;;;;;;;;;5048230;28;20487;-64
2024/01/31 00:40:59;;;;;;;9.50;2.30;;;;;;;;;;5047793;28;20045;-65
2024/01/31 00:43:25;;;;;;;14.80;3.90;;;;;;;;;;5047231;28;20048;-64
2024/01/31 00:45:51;;;;;;;20.60;2.53;;;;;;;;;;5047742;28;20045;-64
2024/01/31 00:48:17;;;;;;;11.40;2.47;;;;;;;;;;5047748;28;20059;-64
2024/01/31 00:50:43;;;;;;;12.53;2.20;;;;;;;;;;5047405;28;20045;-64
2024/01/31 00:53:09;;;;;;;10.17;2.20;;;;;;;;;;5047171;28;20514;-64
2024/01/31 00:55:35;;;;;;;17.70;3.00;;;;;;;;;;5046788;28;20558;-64
2024/01/31 00:58:01;;;;;;;10.77;1.90;;;;;;;;;;5047639;28;20048;-64
2024/01/31 01:00:27;;;;;;;11.13;1.97;;;;;;;;;;5047492;28;20045;-64
2024/01/31 01:02:54;;;;;;;8.33;2.10;;;;;;;;;;5047138;28;20057;-64
2024/01/31 01:05:20;;;;;;;8.07;2.00;;;;;;;;;;5044211;28;20049;-64
2024/01/31 01:07:46;;;;;;;11.77;1.90;;;;;;;;;;5047254;28;20041;-64
2024/01/31 01:10:13;;;;;;;8.27;1.73;;;;;;;;;;5047180;28;20497;-64
2024/01/31 01:12:39;;;;;;;8.17;1.37;;;;;;;;;;5048104;28;20462;-64
2024/01/31 01:15:05;;;;;;;11.07;1.30;;;;;;;;;;5048065;28;20051;-64
2024/01/31 01:17:32;;;;;;;13.30;2.83;;;;;;;;;;5048049;28;20087;-64
2024/01/31 01:19:58;;;;;;;5.57;1.40;;;;;;;;;;5047734;28;20049;-64
2024/01/31 01:22:24;;;;;;;6.27;1.60;;;;;;;;;;5046771;28;20496;-64
2024/01/31 01:24:50;;;;;;;8.10;1.53;;;;;;;;;;5047417;28;20052;-64
2024/01/31 01:27:16;;;;;;;6.53;1.67;;;;;;;;;;5046275;28;20051;-64
2024/01/31 01:29:42;;;;;;;6.90;1.57;;;;;;;;;;5047803;28;20049;-64
2024/01/31 01:32:08;;;;;;;6.17;1.70;;;;;;;;;;5048331;28;20052;-64
2024/01/31 01:34:34;;;;;;;6.33;1.30;;;;;;;;;;5047347;28;20400;-64
2024/01/31 01:37:00;;;;;;;9.63;1.70;;;;;;;;;;5047486;28;20396;-64
2024/01/31 01:39:26;;;;;;;11.37;2.10;;;;;;;;;;5047685;28;20504;-64
2024/01/31 01:41:53;;;;;;;10.07;1.97;;;;;;;;;;5047762;28;20516;-64
2024/01/31 01:44:19;;;;;;;10.03;1.70;;;;;;;;;;5047823;28;20049;-64
2024/01/31 01:46:45;;;;;;;8.90;2.10;;;;;;;;;;5047711;28;20068;-64
2024/01/31 01:49:12;;;;;;;7.47;2.30;;;;;;;;;;5047272;28;20053;-64
2024/01/31 01:51:39;;;;;;;11.50;2.03;;;;;;;;;;5047762;28;20531;-64
2024/01/31 01:54:05;;;;;;;10.00;2.13;;;;;;;;;;5047488;28;20492;-64
2024/01/31 01:56:31;;;;;;;10.97;2.23;;;;;;;;;;5047795;28;20048;-64
2024/01/31 01:58:57;;;;;;;6.10;2.27;;;;;;;;;;5046940;28;20036;-64
2024/01/31 02:01:25;;;;;;;13.83;1.93;;;;;;;;;;5051377;28;20041;-64
2024/01/31 02:03:54;;;;;;;12.07;2.30;;;;;;;;;;5051122;28;20060;-64
2024/01/31 02:06:20;;;;;;;11.13;2.07;;;;;;;;;;5051028;28;21071;-64
2024/01/31 02:08:46;;;;;;;7.00;1.90;;;;;;;;;;5050041;28;20095;-64
2024/01/31 02:11:13;;;;;;;9.77;2.00;;;;;;;;;;5050665;28;20049;-64
2024/01/31 02:13:39;;;;;;;16.07;1.90;;;;;;;;;;5051321;28;20053;-64
2024/01/31 02:16:05;;;;;;;9.70;1.60;;;;;;;;;;5049965;28;20049;-64
2024/01/31 02:18:31;;;;;;;5.43;1.40;;;;;;;;;;5040913;28;20130;-64
2024/01/31 02:20:57;;;;;;;10.13;1.73;;;;;;;;;;5050791;28;20131;-64
2024/01/31 02:23:23;;;;;;;6.57;1.33;;;;;;;;;;5050372;28;20041;-64
2024/01/31 02:25:49;;;;;;;7.47;1.40;;;;;;;;;;5050837;28;20068;-64
2024/01/31 02:28:16;;;;;;;7.17;1.43;;;;;;;;;;5050590;28;20124;-64
2024/01/31 02:30:42;;;;;;;7.40;1.20;;;;;;;;;;5050889;28;20083;-64
2024/01/31 02:33:08;;;;;;;3.83;0.90;;;;;;;;;;5050019;28;20099;-64
2024/01/31 02:35:35;;;;;;;7.77;1.00;;;;;;;;;;5050872;28;20068;-64
2024/01/31 02:38:01;;;;;;;6.43;0.97;;;;;;;;;;5050445;28;20052;-64
2024/01/31 02:40:29;;;;;;;8.07;1.20;;;;;;;;;;5049259;28;20037;-64
2024/01/31 02:42:55;;;;;;;4.77;0.93;;;;;;;;;;5050697;28;20052;-64
2024/01/31 02:45:21;;;;;;;5.03;1.30;;;;;;;;;;5050350;28;20049;-64
2024/01/31 02:47:47;;;;;;;7.67;1.40;;;;;;;;;;5050754;28;20041;-64
2024/01/31 02:50:13;;;;;;;4.53;0.80;;;;;;;;;;5049600;28;20049;-64
2024/01/31 02:52:39;;;;;;;7.70;1.10;;;;;;;;;;5050374;28;20051;-64
2024/01/31 02:55:06;;;;;;;6.87;1.23;;;;;;;;;;5049182;28;20049;-64
2024/01/31 02:57:32;;;;;;;12.73;1.20;;;;;;;;;;5050656;28;20087;-64
2024/01/31 02:59:58;;;;;;;8.30;0.97;;;;;;;;;;5048912;28;20530;-64
2024/01/31 03:02:24;;;;;;;6.40;1.50;;;;;;;;;;5049613;28;20127;-64
2024/01/31 03:04:50;;;;;;;5.60;1.50;;;;;;;;;;5049972;28;20538;-64
2024/01/31 03:07:16;;;;;;;5.43;1.30;;;;;;;;;;5049883;28;20526;-64
2024/01/31 03:09:42;;;;;;;9.27;2.87;;;;;;;;;;5049574;28;20045;-64
2024/01/31 03:12:08;;;;;;;4.83;1.20;;;;;;;;;;5049650;28;20049;-64
2024/01/31 03:14:35;;;;;;;7.13;1.30;;;;;;;;;;5049897;28;20511;-64
2024/01/31 03:17:01;;;;;;;9.97;1.70;;;;;;;;;;5048660;28;20057;-64
2024/01/31 03:19:28;;;;;;;5.13;1.00;;;;;;;;;;5048874;28;20221;-64
2024/01/31 03:21:55;;;;;;;4.47;1.03;;;;;;;;;;5049424;28;20041;-64
2024/01/31 03:24:21;;;;;;;6.37;1.20;;;;;;;;;;5049627;28;20462;-65
2024/01/31 03:26:47;;;;;;;5.97;1.70;;;;;;;;;;5049212;28;20048;-64
2024/01/31 03:29:14;;;;;;;5.53;1.40;;;;;;;;;;5048951;28;20041;-64
2024/01/31 03:31:40;;;;;;;10.87;1.60;;;;;;;;;;5049431;28;20519;-64
2024/01/31 03:34:06;;;;;;;8.00;1.10;;;;;;;;;;5048894;28;20060;-64
2024/01/31 03:36:33;;;;;;;6.93;1.20;;;;;;;;;;5049637;28;20064;-64
2024/01/31 03:38:59;;;;;;;6.37;1.40;;;;;;;;;;5048092;28;20522;-64
2024/01/31 03:41:25;;;;;;;11.23;1.40;;;;;;;;;;5049186;28;20041;-64
2024/01/31 03:43:52;;;;;;;7.13;1.83;;;;;;;;;;5048953;28;20053;-64
2024/01/31 03:46:18;;;;;;;8.23;1.23;;;;;;;;;;5049251;28;20048;-64
2024/01/31 03:48:44;;;;;;;8.57;1.40;;;;;;;;;;5048921;28;20049;-64
2024/01/31 03:51:22;;;;;;;7.53;1.40;;;;;;;;;;5049311;28;20068;-64
2024/01/31 03:53:48;;;;;;;8.80;1.57;;;;;;;;;;5048925;28;20111;-64
2024/01/31 03:56:15;;;;;;;7.27;1.57;;;;;;;;;;5047892;28;20463;-64
2024/01/31 03:58:41;;;;;;;11.50;1.67;;;;;;;;;;5048647;28;20037;-64
2024/01/31 04:01:08;;;;;;;6.80;1.63;;;;;;;;;;5048924;28;20111;-64
2024/01/31 04:03:34;;;;;;;7.97;1.60;;;;;;;;;;5049010;28;20053;-64
2024/01/31 04:06:00;;;;;;;8.77;2.00;;;;;;;;;;5047667;28;20052;-64
2024/01/31 04:08:26;;;;;;;9.67;1.50;;;;;;;;;;5047540;28;20065;-64
2024/01/31 04:10:52;;;;;;;5.37;1.60;;;;;;;;;;5048756;28;20045;-64
2024/01/31 04:13:21;;;;;;;11.73;1.73;;;;;;;;;;5048672;28;20049;-64
2024/01/31 04:15:47;;;;;;;9.50;1.73;;;;;;;;;;5048558;28;20053;-64
2024/01/31 04:18:13;;;;;;;9.50;1.83;;;;;;;;;;5049058;28;20522;-64
2024/01/31 04:20:40;;;;;;;10.03;2.03;;;;;;;;;;5048495;28;20045;-64
2024/01/31 04:23:06;;;;;;;6.30;1.73;;;;;;;;;;5047702;28;20045;-64
2024/01/31 04:25:32;;;;;;;8.90;2.13;;;;;;;;;;5048447;28;20553;-64
2024/01/31 04:27:58;;;;;;;13.47;1.83;;;;;;;;;;5048310;28;20511;-64
2024/01/31 04:30:25;;;;;;;9.93;1.50;;;;;;;;;;5047932;28;20045;-64
2024/01/31 04:32:51;;;;;;;5.80;2.00;;;;;;;;;;5047934;28;20060;-64
2024/01/31 04:35:17;;;;;;;10.73;1.77;;;;;;;;;;5048299;28;20507;-64
2024/01/31 04:37:43;;;;;;;9.60;1.53;;;;;;;;;;5048365;28;20045;-63
2024/01/31 04:40:09;;;;;;;6.67;1.87;;;;;;;;;;5048322;28;20499;-64
2024/01/31 04:42:35;;;;;;;12.13;2.07;;;;;;;;;;5047860;28;20041;-64
2024/01/31 04:45:01;;;;;;;11.23;1.87;;;;;;;;;;5048446;28;20044;-64
2024/01/31 04:47:27;;;;;;;10.30;2.43;;;;;;;;;;5047949;28;20496;-64
2024/01/31 04:49:56;;;;;;;12.80;2.60;;;;;;;;;;5048402;28;20052;-64
2024/01/31 04:52:22;;;;;;;10.43;2.63;;;;;;;;;;5048145;28;20084;-64
2024/01/31 04:54:50;;;;;;;10.77;2.70;;;;;;;;;;5046465;28;20049;-64
2024/01/31 04:57:16;;;;;;;14.07;2.67;;;;;;;;;;5048188;28;20656;-64
2024/01/31 04:59:42;;;;;;;9.70;2.57;;;;;;;;;;5047393;28;20047;-63
2024/01/31 05:02:08;;;;;;;11.47;2.90;;;;;;;;;;5048027;28;20037;-64
2024/01/31 05:04:35;;;;;;;12.40;3.00;;;;;;;;;;5046845;28;20041;-64
2024/01/31 05:07:01;;;;;;;13.80;2.83;;;;;;;;;;5047635;28;20084;-64
2024/01/31 05:09:27;;;;;;;14.93;3.73;;;;;;;;;;5048006;28;20041;-64
2024/01/31 05:11:53;;;;;;;16.13;3.10;;;;;;;;;;5047793;28;20048;-64
2024/01/31 05:14:19;;;;;;;8.80;2.97;;;;;;;;;;5048072;28;20182;-64
2024/01/31 05:16:45;;;;;;;11.17;3.23;;;;;;;;;;5047828;28;20057;-64
2024/01/31 05:19:14;;;;;;;11.37;3.00;;;;;;;;;;5048052;28;20053;-64
2024/01/31 05:21:50;;;;;;;12.00;3.10;;;;;;;;;;5047595;28;20325;-64
2024/01/31 05:24:16;;;;;;;14.00;3.57;;;;;;;;;;5047794;28;20098;-64
2024/01/31 05:26:48;;;;;;;6.73;3.67;;;;;;;;;;5047886;28;20099;-64
2024/01/31 05:29:15;;;;;;;11.23;4.07;;;;;;;;;;5047665;28;20076;-64
2024/01/31 05:31:41;;;;;;;12.40;4.10;;;;;;;;;;5047342;28;20163;-64
2024/01/31 05:34:07;;;;;;;11.67;3.70;;;;;;;;;;5049483;28;20501;-65
2024/01/31 05:36:33;;;;;;;13.63;3.90;;;;;;;;;;5051607;28;20406;-64
2024/01/31 05:38:59;;;;;;;8.23;3.53;;;;;;;;;;5051873;28;20048;-64
2024/01/31 05:41:25;;;;;;;10.57;4.17;;;;;;;;;;5049242;28;20052;-64
2024/01/31 05:43:51;;;;;;;9.93;3.90;;;;;;;;;;5051530;28;20053;-64
2024/01/31 05:46:18;;;;;;;11.43;3.60;;;;;;;;;;5051974;28;20045;-64
2024/01/31 05:48:46;;;;;;;13.53;3.67;;;;;;;;;;5051106;28;20048;-64
2024/01/31 05:51:12;;;;;;;9.60;3.63;;;;;;;;;;5051021;28;20037;-64
2024/01/31 05:53:38;;;;;;;17.07;5.33;;;;;;;;;;5050580;28;20076;-64
2024/01/31 05:56:04;;;;;;;12.07;4.30;;;;;;;;;;5051184;28;20041;-64
2024/01/31 05:58:30;;;;;;;19.40;4.33;;;;;;;;;;5050888;28;20444;-64
2024/01/31 06:00:56;;;;;;;12.80;3.80;;;;;;;;;;5051599;28;20407;-64
2024/01/31 06:03:27;;;;;;;10.03;3.90;;;;;;;;;;5050606;28;20111;-64
2024/01/31 06:05:54;;;;;;;11.60;3.90;;;;;;;;;;5051026;28;20088;-64
2024/01/31 06:08:23;;;;;;;9.70;4.90;;;;;;;;;;5050938;28;20110;-64
2024/01/31 06:10:53;;;;;;;12.73;5.70;;;;;;;;;;5049655;28;20049;-64
2024/01/31 06:13:19;;;;;;;11.93;3.20;;;;;;;;;;5051300;28;20053;-64
2024/01/31 06:15:45;;;;;;;16.20;3.97;;;;;;;;;;5050590;28;20134;-64
2024/01/31 06:18:11;;;;;;;11.07;3.87;;;;;;;;;;5049103;28;20503;-64
2024/01/31 06:20:40;;;;;;;14.93;4.03;;;;;;;;;;5050728;28;20045;-64
2024/01/31 06:23:09;;;;;;;14.67;3.57;;;;;;;;;;5051026;28;20048;-64
2024/01/31 06:25:35;;;;;;;13.00;4.37;;;;;;;;;;5050822;28;20106;-64
2024/01/31 06:28:02;;;;;;;9.33;3.57;;;;;;;;;;5050908;28;20053;-64
2024/01/31 06:30:33;;;;;;;11.73;4.03;;;;;;;;;;5050375;28;20081;-64
2024/01/31 06:33:07;;;;;;;10.53;3.93;;;;;;;;;;5050784;28;20067;-64
2024/01/31 06:35:33;;;;;;;11.27;4.63;;;;;;;;;;5050923;28;20373;-64
2024/01/31 06:37:59;;;;;;;18.00;4.37;;;;;;;;;;5050498;28;20077;-64
2024/01/31 06:40:26;;;;;;;15.13;5.17;;;;;;;;;;5050193;28;20080;-64
2024/01/31 06:42:52;;;;;;;9.93;4.00;;;;;;;;;;5050569;28;20051;-65
2024/01/31 06:45:18;;;;;;;11.43;4.80;;;;;;;;;;5048485;28;20095;-65
2024/01/31 06:47:44;;;;;;;9.27;3.80;;;;;;;;;;5050571;28;20098;-65
2024/01/31 06:50:10;;;;;;;12.80;4.27;;;;;;;;;;5050195;28;20485;-65
2024/01/31 06:52:36;;;;;;;13.00;4.57;;;;;;;;;;5050175;28;20049;-65
2024/01/31 06:55:02;;;;;;;16.10;5.73;;;;;;;;;;5050159;28;20101;-64
2024/01/31 06:57:30;;;;;;;13.37;4.50;;;;;;;;;;5050399;28;20060;-65
2024/01/31 06:59:56;;;;;;;10.13;4.40;;;;;;;;;;5049407;28;20053;-65
2024/01/31 07:02:22;;;;;;;14.17;4.60;;;;;;;;;;5049807;28;20186;-65
2024/01/31 07:04:48;;;;;;;12.40;4.90;;;;;;;;;;5049217;28;20099;-65
2024/01/31 07:07:14;;;;;;;17.37;6.00;;;;;;;;;;5050104;28;20442;-65
2024/01/31 07:09:40;;;;;;;14.63;6.00;;;;;;;;;;5050386;28;20045;-65
2024/01/31 07:12:06;;;;;;;10.70;4.67;;;;;;;;;;5049438;28;20045;-65
2024/01/31 07:14:32;;;;;;;10.80;6.13;;;;;;;;;;5050115;28;20044;-65
2024/01/31 07:16:58;;;;;;;11.63;6.20;;;;;;;;;;5048895;28;20470;-65
2024/01/31 07:19:24;;;;;;;15.97;5.70;;;;;;;;;;5049846;28;20041;-65
2024/01/31 07:21:50;;;;;;;13.60;6.67;;;;;;;;;;5049995;28;20041;-65
2024/01/31 07:24:17;;;;;;;13.73;7.17;;;;;;;;;;5049420;28;20041;-65
2024/01/31 07:26:43;;;;;;;12.83;7.00;;;;;;;;;;5049468;28;20140;-65
2024/01/31 07:29:10;;;;;;;8.57;5.83;;;;;;;;;;5048516;28;20140;-65
2024/01/31 07:31:36;;;;;;;12.63;6.57;;;;;;;;;;5049762;28;20471;-65
2024/01/31 07:34:02;;;;;;;16.33;7.90;;;;;;;;;;5048778;28;20536;-65
2024/01/31 07:36:28;;;;;;;12.73;5.97;;;;;;;;;;5033724;28;20051;-65
2024/01/31 07:38:54;;;;;;;11.90;6.97;;;;;;;;;;5049368;28;20103;-65
2024/01/31 07:41:20;;;;;;;12.33;6.30;;;;;;;;;;5047397;28;20037;-65
2024/01/31 07:43:46;;;;;;;12.40;7.17;;;;;;;;;;5049439;28;20041;-65
2024/01/31 07:46:12;;;;;;;15.57;5.93;;;;;;;;;;5049097;28;20044;-65
2024/01/31 07:48:38;;;;;;;10.53;5.87;;;;;;;;;;5049272;28;20036;-65
2024/01/31 07:51:05;;;;;;;16.77;6.00;;;;;;;;;;5048991;28;20127;-65
2024/01/31 07:53:34;;;;;;;13.80;5.30;;;;;;;;;;5049120;28;20041;-65
2024/01/31 07:56:01;;;;;;;9.53;5.10;;;;;;;;;;5047261;28;20053;-65
2024/01/31 07:58:27;;;;;;;12.63;5.50;;;;;;;;;;5049109;28;20052;-65
2024/01/31 08:00:53;;;;;;;12.57;5.47;;;;;;;;;;5048718;28;20052;-65
2024/01/31 08:03:19;;;;;;;12.33;5.03;;;;;;;;;;5048473;28;20661;-65
2024/01/31 08:05:45;;;;;;;9.77;5.47;;;;;;;;;;5048608;28;20134;-65
2024/01/31 08:08:11;;;;;;;11.33;4.83;;;;;;;;;;5048226;28;20071;-65
2024/01/31 08:10:38;;;;;;;12.67;5.43;;;;;;;;;;5048595;28;20056;-65
2024/01/31 08:13:05;;;;;;;10.17;5.03;;;;;;;;;;5048384;28;20106;-65
2024/01/31 08:15:32;;;;;;;12.13;5.13;;;;;;;;;;5045566;28;20123;-65
2024/01/31 08:17:58;;;;;;;11.10;4.60;;;;;;;;;;5046569;28;20183;-65
2024/01/31 08:20:24;;;;;;;10.50;4.33;;;;;;;;;;5044759;28;20051;-65
2024/01/31 08:22:50;;;;;;;11.13;4.43;;;;;;;;;;5048821;28;20497;-65
2024/01/31 08:25:16;;;;;;;7.73;4.50;;;;;;;;;;5048669;28;20135;-65
2024/01/31 08:27:42;;;;;;;13.90;4.67;;;;;;;;;;5041512;28;20127;-65
2024/01/31 08:30:09;;;;;;;8.53;3.73;;;;;;;;;;5047939;28;20083;-65
2024/01/31 08:32:35;;;;;;;7.80;3.60;;;;;;;;;;5048333;28;20510;-65
2024/01/31 08:35:02;;;;;;;5.73;3.10;;;;;;;;;;5048883;28;20059;-65
2024/01/31 08:37:28;;;;;;;4.57;2.97;;;;;;;;;;5047804;28;20036;-65
2024/01/31 08:39:54;;;;;;;7.03;2.90;;;;;;;;;;5046646;28;20059;-65
2024/01/31 08:42:20;;;;;;;5.63;2.60;;;;;;;;;;5047146;28;20049;-65
2024/01/31 08:44:46;;;;;;;5.27;2.60;;;;;;;;;;5045973;28;20284;-65
2024/01/31 08:47:12;;;;;;;11.87;3.17;;;;;;;;;;5045554;28;20415;-65
2024/01/31 08:49:38;;;;;;;11.10;2.50;;;;;;;;;;5045720;28;20045;-65
2024/01/31 08:52:05;;;;;;;4.97;2.93;;;;;;;;;;5046395;28;20059;-65
2024/01/31 08:54:31;;;;;;;8.73;3.60;;;;;;;;;;5048213;28;20102;-65
2024/01/31 08:56:57;;;;;;;11.77;3.10;;;;;;;;;;5047572;28;20045;-65
2024/01/31 08:59:23;;;;;;;6.20;3.07;;;;;;;;;;5046381;28;20053;-65
2024/01/31 09:01:49;;;;;;;4.20;3.07;;;;;;;;;;5046290;28;20048;-65
2024/01/31 09:04:15;;;;;;;6.80;3.37;;;;;;;;;;5040531;28;20057;-65
2024/01/31 09:06:41;;;;;;;7.50;3.63;;;;;;;;;;5047049;28;20052;-65
2024/01/31 09:09:07;;;;;;;6.27;3.07;;;;;;;;;;5052250;28;20106;-65
2024/01/31 09:11:33;;;;;;;6.73;3.60;;;;;;;;;;5052349;28;20036;-65
2024/01/31 09:13:59;;;;;;;7.43;3.83;;;;;;;;;;5053538;28;20553;-65
2024/01/31 09:16:25;;;;;;;8.47;3.90;;;;;;;;;;5054921;28;20052;-65
2024/01/31 09:18:51;;;;;;;6.57;3.47;;;;;;;;;;5054161;28;20470;-66
2024/01/31 09:21:22;;;;;;;11.60;4.17;;;;;;;;;;5054167;28;20048;-65
2024/01/31 09:23:48;;;;;;;7.60;3.67;;;;;;;;;;5052130;28;20465;-65
2024/01/31 09:26:14;;;;;;;7.90;4.40;;;;;;;;;;5050945;28;20144;-65
2024/01/31 09:28:40;;;;;;;7.50;3.80;;;;;;;;;;5051584;28;20132;-65
2024/01/31 09:31:06;;;;;;;10.63;3.97;;;;;;;;;;5053621;28;20128;-64
2024/01/31 09:33:32;;;;;;;6.23;3.77;;;;;;;;;;5052855;28;20056;-63
2024/01/31 09:35:59;;;;;;;7.93;4.10;;;;;;;;;;5049438;28;20055;-64
2024/01/31 09:38:26;;;;;;;8.80;3.73;;;;;;;;;;5050628;28;20052;-64
2024/01/31 09:40:52;;;;;;;10.00;4.60;;;;;;;;;;5050817;28;20119;-63
2024/01/31 09:43:19;;;;;;;6.13;3.37;;;;;;;;;;5053868;28;20041;-63
2024/01/31 09:45:46;;;;;;;10.47;4.93;;;;;;;;;;5050948;28;20059;-63
2024/01/31 09:48:13;;;;;;;10.43;4.67;;;;;;;;;;5053561;28;20166;-63
2024/01/31 09:50:39;;;;;;;8.07;3.80;;;;;;;;;;5053867;28;20466;-63
2024/01/31 09:53:06;;;;;;;6.93;4.23;;;;;;;;;;5040265;28;20122;-63
2024/01/31 09:55:34;;;;;;;7.77;4.40;;;;;;;;;;5052960;28;20045;-63
2024/01/31 09:58:00;;;;;;;10.10;4.63;;;;;;;;;;5054561;28;20400;-63
2024/01/31 10:00:26;;;;;;;7.60;4.27;;;;;;;;;;5051384;28;20057;-64
2024/01/31 10:02:52;;;;;;;7.43;4.50;;;;;;;;;;5061962;28;20053;-64
2024/01/31 10:05:18;;;;;;;7.60;4.37;;;;;;;;;;5056241;28;20103;-63
2024/01/31 10:07:45;;;;;;;8.83;4.50;;;;;;;;;;5054657;28;20045;-64
2024/01/31 10:10:11;;;;;;;7.83;4.27;;;;;;;;;;5053708;28;20102;-64
2024/01/31 10:12:38;;;;;;;13.17;5.43;;;;;;;;;;5052414;28;20044;-64
2024/01/31 10:15:05;;;;;;;8.87;5.30;;;;;;;;;;5053916;28;20044;-64
2024/01/31 10:17:31;;;;;;;10.47;4.73;;;;;;;;;;5052546;28;20052;-63
2024/01/31 10:20:01;;;;;;;9.80;5.10;;;;;;;;;;5050858;28;20132;-64
2024/01/31 10:22:29;;;;;;;9.47;4.63;;;;;;;;;;5049097;28;20394;-64
2024/01/31 10:24:55;;;;;;;11.63;5.13;;;;;;;;;;5049424;28;20064;-64
2024/01/31 10:27:23;;;;;;;8.87;5.27;;;;;;;;;;5049987;28;20053;-64
2024/01/31 10:29:49;;;;;;;12.77;5.43;;;;;;;;;;5050304;28;20052;-64
2024/01/31 10:32:16;;;;;;;8.43;5.10;;;;;;;;;;5049564;28;20044;-64
2024/01/31 10:34:43;;;;;;;10.27;5.30;;;;;;;;;;5050340;28;20056;-64
2024/01/31 10:37:10;;;;;;;9.83;5.70;;;;;;;;;;5047953;28;20084;-64
2024/01/31 10:39:37;;;;;;;10.40;5.70;;;;;;;;;;5049516;28;20033;-64
2024/01/31 10:42:05;;;;;;;9.17;6.20;;;;;;;;;;5047662;28;20052;-64
2024/01/31 10:44:32;;;;;;;10.90;6.67;;;;;;;;;;5049864;28;20061;-64
2024/01/31 10:46:59;;;;;;;8.30;6.10;;;;;;;;;;5048487;28;20045;-64
2024/01/31 10:49:25;;;;;;;10.20;6.20;;;;;;;;;;5049090;28;20106;-64
2024/01/31 10:51:51;;;;;;;9.10;6.27;;;;;;;;;;5049126;28;20507;-64
2024/01/31 10:54:21;;;;;;;10.27;7.20;;;;;;;;;;5060550;28;20049;-64
2024/01/31 10:56:47;;;;;;;10.97;7.20;;;;;;;;;;5058451;28;20162;-66
2024/01/31 10:59:13;;;;;;;13.30;7.43;;;;;;;;;;5050049;28;20454;-66
2024/01/31 11:01:50;;;;;;;12.03;8.33;;;;;;;;;;5049390;28;20053;-66
2024/01/31 11:04:16;;;;;;;10.47;8.13;;;;;;;;;;5048927;28;20103;-64
2024/01/31 11:06:42;;;;;;;13.70;8.80;;;;;;;;;;5046104;28;20060;-66
2024/01/31 11:09:17;;;;;;;12.90;8.53;;;;;;;;;;5048192;28;20040;-66
2024/01/31 11:11:43;;;;;;;10.87;7.60;;;;;;;;;;5051966;28;20099;-66
2024/01/31 11:14:12;;;;;;;11.27;8.20;;;;;;;;;;5049482;28;20052;-66
2024/01/31 11:16:38;;;;;;;11.47;7.23;;;;;;;;;;5049238;28;20048;-65
2024/01/31 11:19:08;;;;;;;11.30;7.50;;;;;;;;;;5044113;28;20366;-65
2024/01/31 11:21:41;;;;;;;12.37;7.70;;;;;;;;;;5049631;28;20052;-66
2024/01/31 11:24:07;;;;;;;9.52;6.93;;;;;;;;;;5047398;28;20118;-65
2024/01/31 11:26:33;;;;;;;9.50;6.77;;;;;;;;;;5049970;28;20494;-66
2024/01/31 11:29:01;;;;;;;8.70;6.53;;;;;;;;;;5050060;28;20052;-64
2024/01/31 11:31:27;;;;;;;12.93;6.23;;;;;;;;;;5048193;28;20454;-64
2024/01/31 11:33:56;;;;;;;8.23;5.57;;;;;;;;;;5049077;28;20048;-63
2024/01/31 11:36:22;;;;;;;9.47;6.17;;;;;;;;;;5048930;28;20045;-64
2024/01/31 11:38:49;;;;;;;7.43;5.17;;;;;;;;;;5049108;28;20040;-64
2024/01/31 11:41:15;;;;;;;7.87;5.37;;;;;;;;;;5049470;28;20049;-64
2024/01/31 11:43:41;;;;;;;7.83;6.30;;;;;;;;;;5047524;28;20052;-63
2024/01/31 11:46:07;;;;;;;9.67;6.37;;;;;;;;;;5053976;28;20045;-64
2024/01/31 11:48:33;;;;;;;6.47;5.30;;;;;;;;;;5048449;28;20041;-63
2024/01/31 11:50:59;;;;;;;7.60;5.90;;;;;;;;;;5048410;28;20045;-63
2024/01/31 11:53:25;;;;;;;8.80;5.47;;;;;;;;;;5047915;28;20048;-63
2024/01/31 11:55:52;;;;;;;6.67;5.53;;;;;;;;;;5048816;28;20052;-64
2024/01/31 11:58:18;;;;;;;8.30;6.90;;;;;;;;;;5047948;28;20456;-64
2024/01/31 12:00:44;;;;;;;8.50;6.57;;;;;;;;;;5046997;28;20513;-63
2024/01/31 12:03:11;;;;;;;9.07;6.73;;;;;;;;;;5049956;28;20534;-64
2024/01/31 12:05:37;;;;;;;8.43;6.83;;;;;;;;;;5048653;28;20053;-64
2024/01/31 12:08:04;;;;;;;7.90;6.67;;;;;;;;;;5063606;28;20045;-63
2024/01/31 12:10:30;;;;;;;7.77;6.43;;;;;;;;;;5047619;28;20045;-64
2024/01/31 12:12:59;;;;;;;10.90;8.67;;;;;;;;;;5049065;28;20049;-63
2024/01/31 12:15:25;;;;;;;11.30;7.40;;;;;;;;;;5046249;28;20125;-64
2024/01/31 12:17:51;;;;;;;11.03;7.60;;;;;;;;;;5047975;28;20048;-63
2024/01/31 12:20:17;;;;;;;10.20;8.07;;;;;;;;;;5061362;28;20173;-63
2024/01/31 12:22:46;;;;;;;10.43;8.20;;;;;;;;;;5048705;28;20127;-63
2024/01/31 12:25:13;;;;;;;12.20;8.40;;;;;;;;;;5048185;28;20044;-63
2024/01/31 12:27:39;;;;;;;15.40;8.87;;;;;;;;;;5047891;28;20037;-63
2024/01/31 12:30:05;;;;;;;14.00;9.67;;;;;;;;;;5047638;28;20048;-63
2024/01/31 12:32:31;;;;;;;10.40;8.93;;;;;;;;;;5047319;28;20566;-63
2024/01/31 12:34:57;;;;;;;15.33;9.17;;;;;;;;;;5048830;28;20092;-63
2024/01/31 12:37:23;;;;;;;12.47;9.53;;;;;;;;;;5064382;28;20055;-63
2024/01/31 12:39:49;;;;;;;11.90;8.20;;;;;;;;;;5048655;28;20091;-63
2024/01/31 12:42:15;;;;;;;10.33;8.27;;;;;;;;;;5047494;28;20438;-63
2024/01/31 12:44:42;;;;;;;9.43;7.63;;;;;;;;;;5047493;28;20420;-63
2024/01/31 12:47:09;;;;;;;11.17;8.13;;;;;;;;;;5046571;28;20519;-63
2024/01/31 12:49:40;;;;;;;10.83;7.87;;;;;;;;;;5048164;28;20553;-63
2024/01/31 12:52:07;;;;;;;10.93;8.30;;;;;;;;;;5047534;28;20102;-63
2024/01/31 12:54:33;;;;;;;12.23;7.07;;;;;;;;;;5048491;28;20041;-63
2024/01/31 12:56:59;;;;;;;14.03;7.97;;;;;;;;;;5044416;28;20106;-63
2024/01/31 12:59:25;;;;;;;11.30;7.90;;;;;;;;;;5042153;28;20056;-63
2024/01/31 13:01:51;;;;;;;11.67;6.83;;;;;;;;;;5045366;28;20123;-63
2024/01/31 13:04:17;;;;;;;8.97;7.40;;;;;;;;;;5046242;28;20096;-63
2024/01/31 13:06:44;;;;;;;12.33;7.70;;;;;;;;;;5045652;28;20044;-63
2024/01/31 13:09:10;;;;;;;10.63;8.20;;;;;;;;;;5045623;28;20049;-63
2024/01/31 13:11:36;;;;;;;10.27;7.27;;;;;;;;;;5046764;28;20041;-63
2024/01/31 13:14:02;;;;;;;11.73;7.93;;;;;;;;;;5047364;28;20048;-63
2024/01/31 13:16:28;;;;;;;9.80;7.80;;;;;;;;;;5047005;28;20138;-63
2024/01/31 13:18:54;;;;;;;12.80;7.73;;;;;;;;;;5047716;28;20045;-63
2024/01/31 13:21:21;;;;;;;14.73;8.40;;;;;;;;;;5047768;28;20041;-63
2024/01/31 13:23:47;;;;;;;12.83;8.30;;;;;;;;;;5047639;28;20089;-63
2024/01/31 13:26:13;;;;;;;13.50;9.00;;;;;;;;;;5047393;28;20041;-63
2024/01/31 13:28:39;;;;;;;13.77;8.97;;;;;;;;;;5047861;28;20052;-65
2024/01/31 13:31:05;;;;;;;15.03;9.03;;;;;;;;;;5048093;28;20068;-65
2024/01/31 13:33:31;;;;;;;16.13;8.57;;;;;;;;;;5047506;28;20056;-63
2024/01/31 13:35:57;;;;;;;13.77;9.50;;;;;;;;;;5047323;28;20037;-63
2024/01/31 13:38:23;;;;;;;15.57;8.60;;;;;;;;;;5048022;28;20102;-63
2024/01/31 13:40:49;;;;;;;11.83;9.67;;;;;;;;;;5047276;28;20048;-63
2024/01/31 13:43:15;;;;;;;12.87;9.13;;;;;;;;;;5047371;28;20087;-63
2024/01/31 13:45:41;;;;;;;12.57;9.23;;;;;;;;;;5047588;28;20056;-63
2024/01/31 13:48:07;;;;;;;13.57;9.63;;;;;;;;;;5046865;28;20056;-63
2024/01/31 13:50:33;;;;;;;13.10;9.27;;;;;;;;;;5047206;28;20507;-65
2024/01/31 13:52:59;;;;;;;15.53;9.53;;;;;;;;;;5047813;28;20045;-65
2024/01/31 13:55:27;;;;;;;12.60;8.87;;;;;;;;;;5050615;28;20252;-65
2024/01/31 13:57:53;;;;;;;14.30;9.40;;;;;;;;;;5050971;28;20061;-65
2024/01/31 14:00:19;;;;;;;18.30;10.90;;;;;;;;;;5050401;28;20053;-65
2024/01/31 14:02:45;;;;;;;15.27;11.23;;;;;;;;;;5051105;28;20102;-64
2024/01/31 14:05:11;;;;;;;15.43;11.23;;;;;;;;;;5050859;28;20045;-63
2024/01/31 14:07:37;;;;;;;16.73;10.63;;;;;;;;;;5050716;28;20056;-64
2024/01/31 14:10:04;;;;;;;16.80;12.67;;;;;;;;;;5050443;28;20056;-64
2024/01/31 14:12:29;;;;;;;17.03;12.00;;;;;;;;;;5049699;28;20052;-64
2024/01/31 14:14:56;;;;;;;16.43;11.90;;;;;;;;;;5050805;28;20044;-64
2024/01/31 14:17:22;;;;;;;17.83;11.33;;;;;;;;;;5050540;28;20053;-64
2024/01/31 14:19:48;;;;;;;14.90;11.63;;;;;;;;;;5050852;28;20049;-64
2024/01/31 14:22:15;;;;;;;17.33;11.67;;;;;;;;;;5049351;28;20045;-64
2024/01/31 14:24:41;;;;;;;16.70;13.17;;;;;;;;;;5049979;28;20060;-64
2024/01/31 14:27:07;;;;;;;20.33;12.30;;;;;;;;;;5050471;28;20055;-64
2024/01/31 14:29:33;;;;;;;18.90;11.77;;;;;;;;;;5050816;28;20053;-64
2024/01/31 14:31:59;;;;;;;15.37;11.17;;;;;;;;;;5050323;28;20128;-64